PWSweather.com
Personal Weather Stations
Station Observations
KGRPEEBLES
PeeblesGB EH45 9LX

PeeblesGB EH45 9LX

Lat: 55.64096, Lon: -3.170893

Elevation: 517

Station Type: Watson W-8681

Latest ConditionsUpdated 5:15:02 AM GMT Saturday, Jan 18, 2020
Currently Today's Max Today's Min Today's Average
Temperature 34.7°F1.5°C 38.1°F3.4°C 34.5°F1.4°C 36.4°F2.4°C
Dew Point 27.3°F-2.6°C 29.4°F-1.4°C 27.1°F-2.7°C 28.6°F-1.9°C
Winds 2.4 mph WNW3.9 kmh WNW 6.0 mph -9.7 kmh - - 4.3 mph 6.9 kmh
Wind Gusts 3.8 mph6.1 kmh 10.7 mph17.2 kmh - -
Humidity 74% 74% 70% 73%
Pressure 29.94 in1013.9 mb 29.94 in1013.9 mb 29.79 in1008.8 mb -
Hour Temp Dew Point Humidity Winds Wind Gusts Pressure Precip Precip Rate Daily Precip Total
05:15 AM 34.7°F1.5°C 27.3°F-2.6°C 74% 2.4 mph WNW3.9 kmh WNW 3.8 mph6.1 kmh 29.94 in1013.9 mb 0.00 in0.0 mm 0.00 in0.0 mm 0.00 in0.0 mm
05:00 AM 34.5°F1.4°C 27.1°F-2.7°C 74% 1.9 mph NW3.1 kmh NW 3.8 mph6.1 kmh 29.93 in1013.5 mb 0.00 in0.0 mm 0.00 in0.0 mm 0.00 in0.0 mm
04:45 AM 35.1°F1.7°C 27.6°F-2.4°C 74% 2.1 mph W3.4 kmh W 3.8 mph6.1 kmh 29.93 in1013.5 mb 0.00 in0.0 mm 0.00 in0.0 mm 0.00 in0.0 mm
04:30 AM 35.8°F2.1°C 28.3°F-2.1°C 74% 4.0 mph WNW6.4 kmh WNW 9.2 mph14.8 kmh 29.91 in1012.9 mb 0.00 in0.0 mm 0.00 in0.0 mm 0.00 in0.0 mm
04:15 AM 35.6°F2.0°C 28.1°F-2.2°C 74% 5.0 mph NNW8.0 kmh NNW 6.9 mph11.1 kmh 29.91 in1012.9 mb 0.00 in0.0 mm 0.00 in0.0 mm 0.00 in0.0 mm
04:00 AM 35.6°F2.0°C 28.1°F-2.2°C 74% 3.4 mph NNE5.5 kmh NNE 5.4 mph8.7 kmh 29.90 in1012.5 mb 0.00 in0.0 mm 0.00 in0.0 mm 0.00 in0.0 mm
03:45 AM 36.0°F2.2°C 28.2°F-2.1°C 73% 5.1 mph WSW8.2 kmh WSW 6.9 mph11.1 kmh 29.90 in1012.5 mb 0.00 in0.0 mm 0.00 in0.0 mm 0.00 in0.0 mm
03:30 AM 35.8°F2.1°C 28.3°F-2.1°C 74% 4.7 mph SSW7.6 kmh SSW 7.6 mph12.2 kmh 29.89 in1012.2 mb 0.00 in0.0 mm 0.00 in0.0 mm 0.00 in0.0 mm
03:15 AM 35.6°F2.0°C 28.1°F-2.2°C 74% 2.7 mph SW4.3 kmh SW 5.4 mph8.7 kmh 29.89 in1012.2 mb 0.00 in0.0 mm 0.00 in0.0 mm 0.00 in0.0 mm
03:00 AM 36.3°F2.4°C 28.8°F-1.8°C 74% 4.4 mph WNW7.1 kmh WNW 7.6 mph12.2 kmh 29.88 in1011.9 mb 0.00 in0.0 mm 0.00 in0.0 mm 0.00 in0.0 mm
02:45 AM 36.5°F2.5°C 29.0°F-1.7°C 74% 4.4 mph WSW7.1 kmh WSW 7.6 mph12.2 kmh 29.87 in1011.5 mb 0.00 in0.0 mm 0.00 in0.0 mm 0.00 in0.0 mm
02:30 AM 37.0°F2.8°C 29.2°F-1.6°C 73% 4.8 mph W7.7 kmh W 7.6 mph12.2 kmh 29.87 in1011.5 mb 0.00 in0.0 mm 0.00 in0.0 mm 0.00 in0.0 mm
02:15 AM 37.2°F2.9°C 29.4°F-1.4°C 73% 5.0 mph SW8.0 kmh SW 10.7 mph17.2 kmh 29.85 in1010.8 mb 0.00 in0.0 mm 0.00 in0.0 mm 0.00 in0.0 mm
02:00 AM 37.0°F2.8°C 28.9°F-1.7°C 72% 4.7 mph SW7.6 kmh SW 8.3 mph13.4 kmh 29.85 in1010.8 mb 0.00 in0.0 mm 0.00 in0.0 mm 0.00 in0.0 mm
01:45 AM 37.0°F2.8°C 29.2°F-1.6°C 73% 4.2 mph WNW6.8 kmh WNW 7.6 mph12.2 kmh 29.84 in1010.5 mb 0.00 in0.0 mm 0.00 in0.0 mm 0.00 in0.0 mm
01:30 AM 37.2°F2.9°C 29.0°F-1.7°C 72% 4.8 mph WNW7.7 kmh WNW 7.6 mph12.2 kmh 29.84 in1010.5 mb 0.00 in0.0 mm 0.00 in0.0 mm 0.00 in0.0 mm
01:15 AM 37.2°F2.9°C 29.0°F-1.7°C 72% 5.3 mph NNW8.5 kmh NNW 9.2 mph14.8 kmh 29.83 in1010.2 mb 0.00 in0.0 mm 0.00 in0.0 mm 0.00 in0.0 mm
01:00 AM 37.0°F2.8°C 28.9°F-1.7°C 72% 5.5 mph SW8.9 kmh SW 10.7 mph17.2 kmh 29.82 in1009.8 mb 0.00 in0.0 mm 0.00 in0.0 mm 0.00 in0.0 mm
12:45 AM 37.0°F2.8°C 29.2°F-1.6°C 73% 5.5 mph NW8.9 kmh NW 9.8 mph15.8 kmh 29.82 in1009.8 mb 0.00 in0.0 mm 0.00 in0.0 mm 0.00 in0.0 mm
12:30 AM 37.0°F2.8°C 29.2°F-1.6°C 73% 4.3 mph WNW6.9 kmh WNW 9.8 mph15.8 kmh 29.81 in1009.5 mb 0.00 in0.0 mm 0.00 in0.0 mm 0.00 in0.0 mm
12:15 AM 37.4°F3.0°C 28.9°F-1.7°C 71% 4.4 mph W7.1 kmh W 7.6 mph12.2 kmh 29.80 in1009.1 mb 0.00 in0.0 mm 0.00 in0.0 mm 0.00 in0.0 mm
12:00 AM 38.1°F3.4°C 29.2°F-1.6°C 70% 6.0 mph WNW9.7 kmh WNW 7.6 mph12.2 kmh 29.79 in1008.8 mb 0.00 in0.0 mm 0.00 in0.0 mm 0.00 in0.0 mm